createdAt,value
2019-03-02T00:00:11.612Z,5.30
2019-03-02T00:02:40.207Z,5.40
2019-03-02T00:05:08.659Z,5.50
2019-03-02T00:07:37.083Z,5.30
2019-03-02T00:10:10.046Z,5.10
2019-03-02T00:12:38.441Z,5.20
2019-03-02T00:15:08.547Z,5.20
2019-03-02T00:17:37.004Z,5.00
2019-03-02T00:20:06.879Z,4.80
2019-03-02T00:22:35.400Z,4.80
2019-03-02T00:25:05.342Z,4.80
2019-03-02T00:27:33.799Z,4.80
2019-03-02T00:30:02.225Z,4.70
2019-03-02T00:32:30.645Z,4.80
2019-03-02T00:34:59.053Z,4.80
2019-03-02T00:37:29.704Z,4.90
2019-03-02T00:39:57.657Z,4.80
2019-03-02T00:42:26.092Z,4.80
2019-03-02T00:44:54.519Z,4.80
2019-03-02T00:47:22.974Z,4.90
2019-03-02T00:49:51.386Z,4.80
2019-03-02T00:52:20.472Z,4.90
2019-03-02T00:54:57.774Z,4.80
2019-03-02T00:57:20.103Z,4.70
2019-03-02T00:59:48.538Z,4.60
2019-03-02T01:02:16.955Z,4.50
2019-03-02T01:04:45.386Z,4.40
2019-03-02T01:07:14.004Z,4.40
2019-03-02T01:09:43.671Z,4.40
2019-03-02T01:12:12.578Z,4.40
2019-03-02T01:14:41.054Z,4.40
2019-03-02T01:17:09.470Z,4.30
2019-03-02T01:19:38.005Z,4.50
2019-03-02T01:22:06.479Z,4.80
2019-03-02T01:24:35.623Z,4.80
2019-03-02T01:27:05.290Z,4.90
2019-03-02T01:29:33.707Z,5.00
2019-03-02T01:32:02.170Z,5.00
2019-03-02T01:34:30.632Z,4.90
2019-03-02T01:36:59.065Z,5.00
2019-03-02T01:39:29.113Z,4.80
2019-03-02T01:41:57.635Z,4.60
2019-03-02T01:44:26.067Z,4.70
2019-03-02T01:46:54.561Z,4.50
2019-03-02T01:49:22.998Z,4.50
2019-03-02T01:51:54.744Z,4.70
2019-03-02T01:54:22.073Z,4.60
2019-03-02T01:56:50.655Z,4.50
2019-03-02T01:59:19.079Z,4.60
2019-03-02T02:01:47.526Z,4.60
2019-03-02T02:04:18.855Z,4.70
2019-03-02T02:06:46.103Z,4.70
2019-03-02T02:09:14.825Z,4.80
2019-03-02T02:11:43.738Z,4.90
2019-03-02T02:14:14.917Z,4.80
2019-03-02T02:16:42.789Z,4.70
2019-03-02T02:19:11.563Z,4.70
2019-03-02T02:21:39.967Z,4.60
2019-03-02T02:24:08.662Z,4.60
2019-03-02T02:26:37.085Z,4.60
2019-03-02T02:29:08.233Z,4.50
2019-03-02T02:31:44.369Z,4.50
2019-03-02T02:34:06.029Z,4.40
2019-03-02T02:36:34.515Z,4.40
2019-03-02T02:39:03.914Z,4.40
2019-03-02T02:41:32.395Z,4.40
2019-03-02T02:44:00.807Z,4.50
2019-03-02T02:46:32.651Z,4.40
2019-03-02T02:48:59.421Z,4.60
2019-03-02T02:51:27.880Z,4.50
2019-03-02T02:53:56.307Z,4.60
2019-03-02T02:56:24.730Z,4.50
2019-03-02T02:58:56.184Z,4.60
2019-03-02T03:01:23.303Z,4.50
2019-03-02T03:03:54.969Z,4.40
2019-03-02T03:06:21.857Z,4.60
2019-03-02T03:08:50.279Z,4.50
2019-03-02T03:11:18.938Z,4.70
2019-03-02T03:13:47.472Z,4.60
2019-03-02T03:16:16.962Z,4.50
2019-03-02T03:18:47.225Z,4.50
2019-03-02T03:21:16.195Z,4.60
2019-03-02T03:23:44.972Z,4.70
2019-03-02T03:26:13.375Z,4.60
2019-03-02T03:28:41.811Z,4.80
2019-03-02T03:31:21.608Z,4.80
2019-03-02T03:33:43.679Z,4.70
2019-03-02T03:36:10.534Z,4.60
2019-03-02T03:38:39.034Z,4.80
2019-03-02T03:41:07.608Z,4.60
2019-03-02T03:43:41.905Z,4.50
2019-03-02T03:46:06.206Z,4.40
2019-03-02T03:48:34.683Z,4.30
2019-03-02T03:51:03.098Z,4.30
2019-03-02T03:53:32.104Z,4.50
2019-03-02T03:56:04.166Z,4.80
2019-03-02T03:58:35.033Z,4.80
2019-03-02T04:01:01.344Z,4.80
2019-03-02T04:03:29.824Z,4.80
2019-03-02T04:05:58.264Z,4.90
2019-03-02T04:08:28.931Z,5.00
2019-03-02T04:11:00.142Z,5.10
2019-03-02T04:13:27.003Z,4.90
2019-03-02T04:15:55.628Z,5.10
2019-03-02T04:18:55.574Z,5.20
2019-03-02T04:21:28.133Z,4.90
2019-03-02T04:23:56.081Z,4.90
2019-03-02T04:26:24.561Z,4.90
2019-03-02T04:28:53.118Z,4.70
2019-03-02T04:31:21.657Z,4.60
2019-03-02T04:33:50.070Z,4.70
2019-03-02T04:36:18.502Z,5.10
2019-03-02T04:38:46.923Z,5.20
2019-03-02T04:41:15.452Z,5.00
2019-03-02T04:43:43.871Z,5.20
2019-03-02T04:46:15.494Z,5.10
2019-03-02T04:48:42.460Z,5.00
2019-03-02T04:51:10.891Z,4.70
2019-03-02T04:53:39.403Z,4.90
2019-03-02T04:56:07.826Z,5.10
2019-03-02T04:58:36.350Z,4.80
2019-03-02T05:01:06.901Z,4.60
2019-03-02T05:03:34.957Z,4.90
2019-03-02T05:06:03.362Z,4.80
2019-03-02T05:08:31.819Z,4.70
2019-03-02T05:11:00.694Z,4.60
2019-03-02T05:13:30.372Z,4.60
2019-03-02T05:15:58.807Z,4.50
2019-03-02T05:18:27.251Z,4.70
2019-03-02T05:20:55.693Z,4.80
2019-03-02T05:23:24.106Z,4.90
2019-03-02T05:25:54.581Z,5.20
2019-03-02T05:28:25.895Z,5.30
2019-03-02T05:30:54.326Z,5.20
2019-03-02T05:33:24.265Z,5.40
2019-03-02T05:35:52.915Z,5.50
2019-03-02T05:38:22.214Z,5.30
2019-03-02T05:40:50.635Z,5.50
2019-03-02T05:43:19.058Z,5.70
2019-03-02T05:45:47.494Z,5.70
2019-03-02T05:48:15.910Z,5.80
2019-03-02T05:50:44.390Z,5.20
2019-03-02T05:53:12.828Z,5.00
2019-03-02T05:55:41.277Z,5.20
2019-03-02T05:58:12.530Z,5.00
2019-03-02T06:00:40.021Z,5.10
2019-03-02T06:03:08.520Z,5.00
2019-03-02T06:05:36.951Z,4.80
2019-03-02T06:08:05.379Z,4.70
2019-03-02T06:10:33.810Z,4.50
2019-03-02T06:13:02.223Z,4.40
2019-03-02T06:15:30.656Z,4.50
2019-03-02T06:17:59.070Z,4.60
2019-03-02T06:20:27.487Z,4.60
2019-03-02T06:22:56.705Z,4.60
2019-03-02T06:25:25.206Z,4.70
2019-03-02T06:27:53.627Z,4.60
2019-03-02T06:30:24.179Z,4.70
2019-03-02T06:32:52.651Z,4.60
2019-03-02T06:35:21.163Z,4.70
2019-03-02T06:37:53.002Z,4.80
2019-03-02T06:40:23.496Z,5.10
2019-03-02T06:42:50.044Z,5.20
2019-03-02T06:45:20.566Z,5.40
2019-03-02T06:47:48.978Z,5.30
2019-03-02T06:50:18.448Z,5.30
2019-03-02T06:52:47.026Z,5.20
2019-03-02T06:55:16.487Z,5.30
2019-03-02T06:57:46.358Z,5.20
2019-03-02T07:00:17.298Z,5.20
2019-03-02T07:02:46.000Z,5.10
2019-03-02T07:05:14.561Z,5.20
2019-03-02T07:07:42.966Z,5.20
2019-03-02T07:10:17.766Z,5.20
2019-03-02T07:12:45.605Z,5.10
2019-03-02T07:15:15.339Z,5.10
2019-03-02T07:18:05.753Z,5.10
2019-03-02T07:20:33.618Z,5.10
2019-03-02T07:23:02.031Z,5.10
2019-03-02T07:25:30.446Z,5.20
2019-03-02T07:28:01.980Z,5.30
2019-03-02T07:30:29.111Z,5.50
2019-03-02T07:32:57.554Z,5.50
2019-03-02T07:35:26.002Z,5.30
2019-03-02T07:37:54.443Z,5.30
2019-03-02T07:40:23.597Z,5.30
2019-03-02T07:42:52.159Z,5.20
2019-03-02T07:45:20.655Z,5.20
2019-03-02T07:47:49.099Z,5.30
2019-03-02T07:50:17.711Z,5.40
2019-03-02T07:52:49.663Z,5.40
2019-03-02T07:55:19.163Z,5.30
2019-03-02T07:57:46.515Z,5.30
2019-03-02T08:00:22.538Z,5.30
2019-03-02T08:02:50.951Z,5.30
2019-03-02T08:05:19.417Z,5.30
2019-03-02T08:07:47.844Z,5.40
2019-03-02T08:10:16.268Z,5.40
2019-03-02T08:12:44.782Z,5.30
2019-03-02T08:15:27.583Z,5.40
2019-03-02T08:17:56.106Z,5.60
2019-03-02T08:20:26.163Z,5.70
2019-03-02T08:22:54.811Z,5.70
2019-03-02T08:25:23.493Z,5.70
2019-03-02T08:27:51.955Z,5.70
2019-03-02T08:30:24.107Z,5.70
2019-03-02T08:32:54.112Z,5.80
2019-03-02T08:35:22.689Z,5.80
2019-03-02T08:37:51.123Z,5.90
2019-03-02T08:40:23.467Z,5.90
2019-03-02T08:42:50.287Z,5.90
2019-03-02T08:45:19.578Z,6.10
2019-03-02T08:47:48.229Z,6.10
2019-03-02T08:50:19.590Z,6.10
2019-03-02T08:52:48.110Z,6.10
2019-03-02T08:55:18.759Z,6.20
2019-03-02T08:57:47.310Z,6.30
2019-03-02T09:00:23.499Z,6.20
2019-03-02T09:02:55.208Z,6.20
2019-03-02T09:05:24.386Z,6.30
2019-03-02T09:07:52.395Z,6.40
2019-03-02T09:10:21.745Z,6.40
2019-03-02T09:12:50.446Z,6.50
2019-03-02T09:15:30.076Z,6.50
2019-03-02T09:17:58.918Z,6.50
2019-03-02T09:20:27.327Z,6.40
2019-03-02T09:23:00.491Z,6.50
2019-03-02T09:25:27.988Z,6.60
2019-03-02T09:27:56.119Z,6.70
2019-03-02T09:30:24.692Z,6.70
2019-03-02T09:32:54.805Z,6.80
2019-03-02T09:35:23.314Z,6.70
2019-03-02T09:37:52.005Z,6.70
2019-03-02T09:40:24.266Z,6.70
2019-03-02T09:42:52.195Z,6.70
2019-03-02T09:45:20.718Z,6.80
2019-03-02T09:47:51.863Z,6.80
2019-03-02T09:50:25.146Z,6.80
2019-03-02T09:52:55.709Z,6.80
2019-03-02T09:55:23.887Z,6.80
2019-03-02T09:57:52.328Z,7.00
2019-03-02T10:00:25.723Z,6.90
2019-03-02T10:02:54.170Z,6.90
2019-03-02T10:05:22.762Z,7.00
2019-03-02T10:07:51.289Z,7.00
2019-03-02T10:10:20.080Z,6.90
2019-03-02T10:12:51.373Z,6.80
2019-03-02T10:15:24.791Z,6.80
2019-03-02T10:17:53.396Z,6.80
2019-03-02T10:20:21.950Z,6.80
2019-03-02T10:22:50.395Z,6.90
2019-03-02T10:25:18.964Z,6.90
2019-03-02T10:27:47.511Z,6.90
2019-03-02T10:30:22.125Z,6.80
2019-03-02T10:32:52.012Z,6.90
2019-03-02T10:35:20.834Z,6.90
2019-03-02T10:37:49.343Z,6.90
2019-03-02T10:40:19.010Z,6.90
2019-03-02T10:42:47.463Z,6.90
2019-03-02T10:45:18.158Z,7.00
2019-03-02T10:47:46.668Z,7.00
2019-03-02T10:50:23.226Z,7.00
2019-03-02T10:52:53.023Z,7.10
2019-03-02T10:55:23.443Z,7.10
2019-03-02T10:57:52.007Z,7.10
2019-03-02T11:00:29.743Z,7.10
2019-03-02T11:02:59.708Z,7.20
2019-03-02T11:05:41.934Z,7.20
2019-03-02T11:08:25.412Z,7.20
2019-03-02T11:10:56.807Z,7.10
2019-03-02T11:13:42.874Z,7.20
2019-03-02T11:16:18.942Z,7.20
2019-03-02T11:19:07.859Z,7.30
2019-03-02T11:21:58.507Z,7.30
2019-03-02T11:24:45.028Z,7.30
2019-03-02T11:27:33.241Z,7.20
2019-03-02T11:30:06.256Z,7.30
2019-03-02T11:32:56.062Z,7.30
2019-03-02T11:35:35.043Z,7.30
2019-03-02T11:38:08.127Z,7.30
2019-03-02T11:40:44.202Z,7.40
2019-03-02T11:43:23.270Z,7.50
2019-03-02T11:45:59.131Z,7.70
2019-03-02T11:48:48.426Z,7.90
2019-03-02T11:51:23.952Z,7.80
2019-03-02T11:53:55.012Z,7.60
2019-03-02T11:56:42.968Z,7.70
2019-03-02T11:59:22.003Z,7.70
2019-03-02T12:01:54.596Z,7.70
2019-03-02T12:04:24.658Z,7.70
2019-03-02T12:07:11.179Z,7.60
2019-03-02T12:09:53.167Z,7.60
2019-03-02T12:12:29.131Z,7.60
2019-03-02T12:15:02.003Z,7.70
2019-03-02T12:17:32.067Z,7.70
2019-03-02T12:20:08.878Z,7.60
2019-03-02T12:22:45.134Z,7.60
2019-03-02T12:25:15.362Z,7.70
2019-03-02T12:28:00.361Z,7.60
2019-03-02T12:30:46.998Z,7.60
2019-03-02T12:33:20.614Z,7.70
2019-03-02T12:35:51.904Z,7.80
2019-03-02T12:38:38.557Z,7.80
2019-03-02T12:41:12.131Z,7.90
2019-03-02T12:43:44.295Z,8.00
2019-03-02T12:46:31.527Z,8.10
2019-03-02T12:49:18.155Z,8.30
2019-03-02T12:52:03.110Z,8.30
2019-03-02T12:54:33.190Z,8.40
2019-03-02T12:57:12.203Z,8.50
2019-03-02T12:59:47.986Z,8.70
2019-03-02T13:02:18.070Z,8.70
2019-03-02T13:04:51.443Z,8.80
2019-03-02T13:07:27.619Z,8.80
2019-03-02T13:09:57.711Z,8.90
2019-03-02T13:12:39.115Z,9.00
2019-03-02T13:15:10.456Z,9.10
2019-03-02T13:17:52.683Z,9.20
2019-03-02T13:20:22.752Z,9.30
2019-03-02T13:23:07.933Z,9.40
2019-03-02T13:25:43.907Z,9.40
2019-03-02T13:28:23.039Z,9.40
2019-03-02T13:30:53.175Z,9.40
2019-03-02T13:33:25.736Z,9.40
2019-03-02T13:36:07.524Z,9.40
2019-03-02T13:38:45.450Z,9.40
2019-03-02T13:41:15.531Z,9.60
2019-03-02T13:43:45.604Z,9.60
2019-03-02T13:46:18.363Z,9.70
2019-03-02T13:48:50.192Z,9.80
2019-03-02T13:51:29.932Z,10.00
2019-03-02T13:54:14.626Z,10.20
2019-03-02T13:56:54.016Z,10.10
2019-03-02T13:59:27.220Z,10.10
2019-03-02T14:01:58.204Z,10.00
2019-03-02T14:04:33.139Z,10.20
2019-03-02T14:07:08.952Z,10.20
2019-03-02T14:09:57.243Z,10.30
2019-03-02T14:12:39.199Z,10.20
2019-03-02T14:15:10.419Z,10.20
2019-03-02T14:17:47.938Z,10.20
2019-03-02T14:20:34.558Z,10.10
2019-03-02T14:23:13.880Z,10.20
2019-03-02T14:25:56.109Z,10.20
2019-03-02T14:28:34.507Z,10.10
2019-03-02T14:33:49.395Z,10.20
2019-03-02T14:36:37.847Z,10.10
2019-03-02T14:39:11.547Z,10.10
2019-03-02T14:41:50.183Z,10.10
2019-03-02T14:44:20.239Z,10.20
2019-03-02T14:47:05.701Z,10.30
2019-03-02T14:49:43.149Z,10.30
2019-03-02T14:52:33.278Z,10.20
2019-03-02T14:55:04.483Z,10.00
2019-03-02T14:57:34.545Z,9.90
2019-03-02T15:00:04.992Z,10.00
2019-03-02T15:02:49.065Z,9.90
2019-03-02T15:05:30.556Z,9.80
2019-03-02T15:08:03.290Z,9.70
2019-03-02T15:10:33.379Z,9.70
2019-03-02T15:13:12.719Z,9.70
2019-03-02T15:15:48.822Z,9.70
2019-03-02T15:18:29.403Z,9.60
2019-03-02T15:20:59.594Z,9.50
2019-03-02T15:23:35.205Z,9.50
2019-03-02T15:26:17.182Z,9.40
2019-03-02T15:29:03.461Z,9.30
2019-03-02T15:31:39.367Z,9.30
2019-03-02T15:34:13.935Z,9.30
2019-03-02T15:36:44.049Z,9.40
2019-03-02T15:39:26.723Z,9.30
2019-03-02T15:42:13.069Z,9.40
2019-03-02T15:44:46.514Z,9.40
2019-03-02T15:47:15.378Z,9.40
2019-03-02T15:49:57.671Z,9.30
2019-03-02T15:52:43.814Z,9.30
2019-03-02T15:55:21.636Z,9.30
2019-03-02T15:57:57.859Z,9.30
2019-03-02T16:00:27.929Z,9.30
2019-03-02T16:02:58.026Z,9.20
2019-03-02T16:05:30.843Z,9.30
2019-03-02T16:08:19.438Z,9.30
2019-03-02T16:10:58.618Z,9.30
2019-03-02T16:13:49.784Z,9.20
2019-03-02T16:16:17.161Z,9.20
2019-03-02T16:19:02.531Z,9.20
2019-03-02T16:21:32.591Z,9.10
2019-03-02T16:24:02.679Z,9.10
2019-03-02T16:26:38.855Z,9.10
2019-03-02T16:29:20.789Z,9.20
2019-03-02T16:31:50.890Z,9.10
2019-03-02T16:34:23.868Z,9.10
2019-03-02T16:36:53.950Z,9.10
2019-03-02T16:39:24.150Z,9.00
2019-03-02T16:42:07.249Z,9.00
2019-03-02T16:44:40.828Z,8.90
2019-03-02T16:47:11.275Z,8.90
2019-03-02T16:49:42.923Z,8.90
2019-03-02T16:52:15.804Z,8.90
2019-03-02T16:54:48.663Z,8.90
2019-03-02T16:57:41.160Z,9.00
2019-03-02T17:00:16.395Z,9.00
2019-03-02T17:02:46.582Z,9.00
2019-03-02T17:05:18.178Z,9.00
2019-03-02T17:07:48.266Z,9.10
2019-03-02T17:10:34.106Z,9.10
2019-03-02T17:13:19.303Z,9.00
2019-03-02T17:15:49.367Z,9.00
2019-03-02T17:18:28.955Z,9.00
2019-03-02T17:21:04.795Z,8.90
2019-03-02T17:23:49.757Z,8.90
2019-03-02T17:26:32.259Z,8.90
2019-03-02T17:29:02.353Z,8.90
2019-03-02T17:31:35.984Z,8.90
2019-03-02T17:34:12.691Z,8.90
2019-03-02T17:36:54.847Z,9.00
2019-03-02T17:39:27.775Z,9.10
2019-03-02T17:41:56.693Z,9.10
2019-03-02T17:44:26.748Z,9.00
2019-03-02T17:46:56.802Z,8.90
2019-03-02T17:49:30.717Z,8.90
2019-03-02T17:52:04.781Z,8.90
2019-03-02T17:54:42.044Z,9.00
2019-03-02T17:57:06.689Z,8.90
2019-03-02T17:59:54.870Z,8.80
2019-03-02T18:02:42.085Z,8.80
2019-03-02T18:05:13.112Z,8.80
2019-03-02T18:07:45.853Z,8.80
2019-03-02T18:10:28.288Z,8.80
2019-03-02T18:13:02.218Z,8.80
2019-03-02T18:15:49.885Z,8.80
2019-03-02T18:18:18.332Z,8.80
2019-03-02T18:20:46.746Z,8.90
2019-03-02T18:23:15.254Z,8.90
2019-03-02T18:25:44.837Z,8.90
2019-03-02T18:28:15.341Z,8.80
2019-03-02T18:30:44.165Z,8.80
2019-03-02T18:33:29.346Z,8.80
2019-03-02T18:35:57.896Z,8.80
2019-03-02T18:38:26.347Z,8.80
2019-03-02T18:40:54.849Z,8.70
2019-03-02T18:43:23.269Z,8.80
2019-03-02T18:45:51.703Z,8.80
2019-03-02T18:48:24.254Z,8.80
2019-03-02T18:50:56.944Z,8.80
2019-03-02T18:53:25.425Z,8.80
2019-03-02T18:55:53.849Z,8.80
2019-03-02T18:58:24.026Z,8.80
2019-03-02T19:00:54.130Z,8.80
2019-03-02T19:03:24.921Z,8.90
2019-03-02T19:05:52.847Z,8.90
2019-03-02T19:08:21.391Z,9.00
2019-03-02T19:10:49.821Z,9.00
2019-03-02T19:13:18.263Z,8.90
2019-03-02T19:15:53.475Z,8.90
2019-03-02T19:18:16.828Z,8.90
2019-03-02T19:20:45.723Z,8.80
2019-03-02T19:23:14.276Z,8.80
2019-03-02T19:25:42.702Z,8.80
2019-03-02T19:28:11.194Z,8.90
2019-03-02T19:30:39.624Z,8.90
2019-03-02T19:33:08.030Z,8.90
2019-03-02T19:35:36.535Z,8.90
2019-03-02T19:38:05.904Z,9.00
2019-03-02T19:40:34.462Z,9.00
2019-03-02T19:43:02.914Z,9.00
2019-03-02T19:45:31.351Z,9.00
2019-03-02T19:47:59.884Z,9.00
2019-03-02T19:50:28.335Z,9.00
2019-03-02T19:52:56.848Z,9.00
2019-03-02T19:55:25.431Z,9.00
2019-03-02T19:57:54.022Z,9.00
2019-03-02T20:00:25.079Z,9.00
2019-03-02T20:02:53.518Z,9.00
2019-03-02T20:05:21.990Z,9.00
2019-03-02T20:07:50.430Z,8.90
2019-03-02T20:10:20.494Z,8.90
2019-03-02T20:12:48.974Z,8.90
2019-03-02T20:15:24.759Z,8.90
2019-03-02T20:17:53.170Z,8.70
2019-03-02T20:20:21.687Z,8.70
2019-03-02T20:22:50.292Z,8.60
2019-03-02T20:25:19.574Z,8.60
2019-03-02T20:27:48.052Z,8.60
2019-03-02T20:30:23.428Z,8.60
2019-03-02T20:32:51.990Z,8.50
2019-03-02T20:35:28.491Z,8.60
2019-03-02T20:37:57.080Z,8.60
2019-03-02T20:40:27.863Z,8.70
2019-03-02T20:42:56.298Z,8.70
2019-03-02T20:45:24.835Z,8.80
2019-03-02T20:47:53.449Z,8.80
2019-03-02T20:50:22.833Z,8.80
2019-03-02T20:52:51.466Z,8.90
2019-03-02T20:55:19.980Z,8.80
2019-03-02T20:57:50.292Z,8.80
2019-03-02T21:00:22.088Z,8.70
2019-03-02T21:02:51.390Z,8.70
2019-03-02T21:05:19.900Z,8.70
2019-03-02T21:07:48.538Z,8.60
2019-03-02T21:10:22.433Z,8.60
2019-03-02T21:12:51.030Z,8.60
2019-03-02T21:15:23.809Z,8.70
2019-03-02T21:17:52.256Z,8.70
2019-03-02T21:20:21.992Z,8.80
2019-03-02T21:22:50.411Z,8.90
2019-03-02T21:25:18.852Z,8.90
2019-03-02T21:27:47.283Z,8.90
2019-03-02T21:30:17.366Z,9.00
2019-03-02T21:32:45.851Z,9.00
2019-03-02T21:35:15.534Z,9.10
2019-03-02T21:37:45.376Z,9.10
2019-03-02T21:40:16.727Z,9.10
2019-03-02T21:42:45.272Z,9.20
2019-03-02T21:45:15.730Z,9.20
2019-03-02T21:47:44.500Z,9.20
2019-03-02T21:50:24.699Z,9.20
2019-03-02T21:52:53.256Z,9.30
2019-03-02T21:55:21.757Z,9.20
2019-03-02T21:57:50.340Z,9.30
2019-03-02T22:00:24.279Z,9.20
2019-03-02T22:02:52.839Z,9.20
2019-03-02T22:05:21.348Z,9.20
2019-03-02T22:07:50.539Z,9.20
2019-03-02T22:10:22.085Z,9.20
2019-03-02T22:12:50.516Z,9.20
2019-03-02T22:15:19.083Z,9.20
2019-03-02T22:17:50.078Z,9.20
2019-03-02T22:20:18.595Z,9.20
2019-03-02T22:22:47.000Z,9.30
2019-03-02T22:25:19.974Z,9.30
2019-03-02T22:27:48.378Z,9.40
2019-03-02T22:30:24.707Z,9.40
2019-03-02T22:32:53.225Z,9.40
2019-03-02T22:35:22.034Z,9.50
2019-03-02T22:37:50.479Z,9.50
2019-03-02T22:40:26.819Z,9.50
2019-03-02T22:42:55.254Z,9.40
2019-03-02T22:45:23.791Z,9.30
2019-03-02T22:47:52.294Z,9.30
2019-03-02T22:50:23.222Z,9.20
2019-03-02T22:52:52.120Z,9.20
2019-03-02T22:55:20.554Z,9.20
2019-03-02T22:57:49.035Z,9.10
2019-03-02T23:00:30.367Z,9.10
2019-03-02T23:02:57.769Z,9.00
2019-03-02T23:05:26.252Z,9.00
2019-03-02T23:07:54.689Z,9.00
2019-03-02T23:10:23.116Z,9.00
2019-03-02T23:12:51.539Z,9.00
2019-03-02T23:15:21.398Z,9.00
2019-03-02T23:17:49.922Z,9.10
2019-03-02T23:20:18.338Z,9.10
2019-03-02T23:22:46.866Z,9.10
2019-03-02T23:25:16.436Z,9.10
2019-03-02T23:27:44.924Z,9.10
2019-03-02T23:30:19.027Z,9.10
2019-03-02T23:32:47.530Z,9.10
2019-03-02T23:35:15.961Z,9.10
2019-03-02T23:37:44.445Z,9.10
2019-03-02T23:40:16.914Z,9.10
2019-03-02T23:42:45.334Z,9.10
2019-03-02T23:45:18.243Z,9.20
2019-03-02T23:47:46.891Z,9.20
2019-03-02T23:50:15.674Z,9.20
2019-03-02T23:52:44.166Z,9.20
2019-03-02T23:55:13.930Z,9.30
2019-03-02T23:57:42.423Z,9.30
